sensor_id;sensor_type;location;lat;lon;timestamp;pressure;altitude;pressure_sealevel;temperature;humidity
10482;BME280;5288;42.334;23.876;2024-01-15T00:01:47;56531.66;;;-140.56;96.35
10482;BME280;5288;42.334;23.876;2024-01-15T00:04:15;56498.06;;;-140.56;96.41
10482;BME280;5288;42.334;23.876;2024-01-15T00:06:42;56527.72;;;-140.56;97.50
10482;BME280;5288;42.334;23.876;2024-01-15T00:09:09;56484.22;;;-140.56;98.86
10482;BME280;5288;42.334;23.876;2024-01-15T00:11:36;56490.16;;;-140.56;100.00
10482;BME280;5288;42.334;23.876;2024-01-15T00:14:03;56488.19;;;-140.56;100.00
10482;BME280;5288;42.334;23.876;2024-01-15T00:16:30;56498.06;;;-140.56;100.00
10482;BME280;5288;42.334;23.876;2024-01-15T00:18:57;56500.03;;;-140.56;100.00
10482;BME280;5288;42.334;23.876;2024-01-15T00:21:25;56496.09;;;-140.56;100.00
10482;BME280;5288;42.334;23.876;2024-01-15T00:23:52;56498.06;;;-140.56;100.00
10482;BME280;5288;42.334;23.876;2024-01-15T00:26:19;56509.91;;;-140.56;100.00
10482;BME280;5288;42.334;23.876;2024-01-15T00:28:46;56509.91;;;-140.56;100.00
10482;BME280;5288;42.334;23.876;2024-01-15T00:31:16;56504.00;;;-140.56;100.00
10482;BME280;5288;42.334;23.876;2024-01-15T00:33:43;56531.66;;;-140.56;100.00
10482;BME280;5288;42.334;23.876;2024-01-15T00:36:09;56494.09;;;-140.56;100.00
10482;BME280;5288;42.334;23.876;2024-01-15T00:38:38;56519.81;;;-140.56;100.00
10482;BME280;5288;42.334;23.876;2024-01-15T00:41:05;56502.00;;;-140.56;100.00
10482;BME280;5288;42.334;23.876;2024-01-15T00:43:32;56498.06;;;-140.56;100.00
10482;BME280;5288;42.334;23.876;2024-01-15T00:46:01;56492.13;;;-140.56;100.00
10482;BME280;5288;42.334;23.876;2024-01-15T00:48:28;56521.78;;;-140.56;100.00
10482;BME280;5288;42.334;23.876;2024-01-15T00:50:55;56494.09;;;-140.56;100.00
10482;BME280;5288;42.334;23.876;2024-01-15T00:53:22;56504.00;;;-140.56;100.00
10482;BME280;5288;42.334;23.876;2024-01-15T00:55:51;56527.72;;;-140.56;100.00
10482;BME280;5288;42.334;23.876;2024-01-15T00:58:18;56507.94;;;-140.56;100.00
10482;BME280;5288;42.334;23.876;2024-01-15T01:00:45;56511.91;;;-140.56;100.00
10482;BME280;5288;42.334;23.876;2024-01-15T01:03:12;56500.03;;;-140.56;100.00
10482;BME280;5288;42.334;23.876;2024-01-15T01:05:39;56474.34;;;-140.56;100.00
10482;BME280;5288;42.334;23.876;2024-01-15T01:08:06;56507.94;;;-140.56;100.00
10482;BME280;5288;42.334;23.876;2024-01-15T01:10:33;56450.63;;;-140.56;100.00
10482;BME280;5288;42.334;23.876;2024-01-15T01:13:02;56511.91;;;-140.56;100.00
10482;BME280;5288;42.334;23.876;2024-01-15T01:15:30;56513.88;;;-140.56;100.00
10482;BME280;5288;42.334;23.876;2024-01-15T01:17:57;56521.78;;;-140.56;100.00
10482;BME280;5288;42.334;23.876;2024-01-15T01:20:24;56492.13;;;-140.56;100.00
10482;BME280;5288;42.334;23.876;2024-01-15T01:22:51;56509.91;;;-140.56;100.00
10482;BME280;5288;42.334;23.876;2024-01-15T01:25:18;56478.28;;;-140.56;100.00
10482;BME280;5288;42.334;23.876;2024-01-15T01:27:45;56509.91;;;-140.56;100.00
10482;BME280;5288;42.334;23.876;2024-01-15T01:30:13;56521.78;;;-140.56;100.00
10482;BME280;5288;42.334;23.876;2024-01-15T01:32:40;56517.81;;;-140.56;100.00
10482;BME280;5288;42.334;23.876;2024-01-15T01:35:07;56511.91;;;-140.56;100.00
10482;BME280;5288;42.334;23.876;2024-01-15T01:37:34;56509.91;;;-140.56;100.00
10482;BME280;5288;42.334;23.876;2024-01-15T01:40:01;56515.84;;;-140.56;100.00
10482;BME280;5288;42.334;23.876;2024-01-15T01:42:28;56482.25;;;-140.56;100.00
10482;BME280;5288;42.334;23.876;2024-01-15T01:44:55;56505.97;;;-140.56;100.00
10482;BME280;5288;42.334;23.876;2024-01-15T01:47:24;56535.59;;;-140.56;100.00
10482;BME280;5288;42.334;23.876;2024-01-15T01:49:52;56513.88;;;-140.56;100.00
10482;BME280;5288;42.334;23.876;2024-01-15T01:52:19;56488.19;;;-140.56;100.00
10482;BME280;5288;42.334;23.876;2024-01-15T01:54:46;56488.19;;;-140.56;100.00
10482;BME280;5288;42.334;23.876;2024-01-15T01:57:14;56523.75;;;-140.56;100.00
10482;BME280;5288;42.334;23.876;2024-01-15T01:59:41;56496.09;;;-140.56;100.00
10482;BME280;5288;42.334;23.876;2024-01-15T02:02:09;56502.00;;;-140.56;100.00
10482;BME280;5288;42.334;23.876;2024-01-15T02:04:38;56505.97;;;-140.56;100.00
10482;BME280;5288;42.334;23.876;2024-01-15T02:07:05;56515.84;;;-140.56;100.00
10482;BME280;5288;42.334;23.876;2024-01-15T02:09:32;56484.22;;;-140.56;100.00
10482;BME280;5288;42.334;23.876;2024-01-15T02:11:59;56484.22;;;-140.56;100.00
10482;BME280;5288;42.334;23.876;2024-01-15T02:14:27;56470.38;;;-140.56;100.00
10482;BME280;5288;42.334;23.876;2024-01-15T02:16:54;56496.09;;;-140.56;100.00
10482;BME280;5288;42.334;23.876;2024-01-15T02:19:21;56515.84;;;-140.56;100.00
10482;BME280;5288;42.334;23.876;2024-01-15T02:21:49;56504.00;;;-140.56;100.00
10482;BME280;5288;42.334;23.876;2024-01-15T02:24:18;56500.03;;;-140.56;100.00
10482;BME280;5288;42.334;23.876;2024-01-15T02:26:45;56488.19;;;-140.56;100.00
10482;BME280;5288;42.334;23.876;2024-01-15T02:29:12;56478.28;;;-140.56;100.00
10482;BME280;5288;42.334;23.876;2024-01-15T02:31:40;56502.00;;;-140.56;100.00
10482;BME280;5288;42.334;23.876;2024-01-15T02:34:07;56500.03;;;-140.56;100.00
10482;BME280;5288;42.334;23.876;2024-01-15T02:36:34;56500.03;;;-140.56;100.00
10482;BME280;5288;42.334;23.876;2024-01-15T02:39:01;56496.09;;;-140.56;100.00
10482;BME280;5288;42.334;23.876;2024-01-15T02:41:30;56486.19;;;-140.56;100.00
10482;BME280;5288;42.334;23.876;2024-01-15T02:43:57;56484.22;;;-140.56;100.00
10482;BME280;5288;42.334;23.876;2024-01-15T02:46:24;56498.06;;;-140.56;100.00
10482;BME280;5288;42.334;23.876;2024-01-15T02:48:51;56527.72;;;-140.56;100.00
10482;BME280;5288;42.334;23.876;2024-01-15T02:51:18;56488.19;;;-140.56;100.00
10482;BME280;5288;42.334;23.876;2024-01-15T02:53:45;56500.03;;;-140.56;100.00
10482;BME280;5288;42.334;23.876;2024-01-15T02:56:12;56539.56;;;-140.56;100.00
10482;BME280;5288;42.334;23.876;2024-01-15T02:58:40;56480.28;;;-140.56;100.00
10482;BME280;5288;42.334;23.876;2024-01-15T03:01:07;56523.75;;;-140.56;100.00
10482;BME280;5288;42.334;23.876;2024-01-15T03:03:34;56504.00;;;-140.56;100.00
10482;BME280;5288;42.334;23.876;2024-01-15T03:06:01;56523.75;;;-140.56;100.00
10482;BME280;5288;42.334;23.876;2024-01-15T03:08:28;56507.94;;;-140.56;100.00
10482;BME280;5288;42.334;23.876;2024-01-15T03:10:55;56492.13;;;-140.56;100.00
10482;BME280;5288;42.334;23.876;2024-01-15T03:13:22;56466.44;;;-140.56;100.00
10482;BME280;5288;42.334;23.876;2024-01-15T03:15:51;56458.53;;;-140.56;100.00
10482;BME280;5288;42.334;23.876;2024-01-15T03:18:18;56494.09;;;-140.56;100.00
10482;BME280;5288;42.334;23.876;2024-01-15T03:20:45;56517.81;;;-140.56;100.00
10482;BME280;5288;42.334;23.876;2024-01-15T03:23:12;56500.03;;;-140.56;100.00
10482;BME280;5288;42.334;23.876;2024-01-15T03:25:39;56523.75;;;-140.56;100.00
10482;BME280;5288;42.334;23.876;2024-01-15T03:28:06;56490.16;;;-140.56;100.00
10482;BME280;5288;42.334;23.876;2024-01-15T03:30:33;56502.00;;;-140.56;100.00
10482;BME280;5288;42.334;23.876;2024-01-15T03:33:01;56486.19;;;-140.56;100.00
10482;BME280;5288;42.334;23.876;2024-01-15T03:35:28;56523.75;;;-140.56;100.00
10482;BME280;5288;42.334;23.876;2024-01-15T03:37:56;56492.13;;;-140.56;100.00
10482;BME280;5288;42.334;23.876;2024-01-15T03:40:23;56533.63;;;-140.56;100.00
10482;BME280;5288;42.334;23.876;2024-01-15T03:42:50;56507.94;;;-140.56;100.00
10482;BME280;5288;42.334;23.876;2024-01-15T03:45:18;56488.19;;;-140.56;100.00
10482;BME280;5288;42.334;23.876;2024-01-15T03:47:44;56515.84;;;-140.56;100.00
10482;BME280;5288;42.334;23.876;2024-01-15T03:50:13;56504.00;;;-140.56;100.00
10482;BME280;5288;42.334;23.876;2024-01-15T03:52:40;56500.03;;;-140.56;100.00
10482;BME280;5288;42.334;23.876;2024-01-15T03:55:07;56523.75;;;-140.56;100.00
10482;BME280;5288;42.334;23.876;2024-01-15T03:57:34;56488.19;;;-140.56;100.00
10482;BME280;5288;42.334;23.876;2024-01-15T04:00:03;56519.81;;;-140.56;100.00
10482;BME280;5288;42.334;23.876;2024-01-15T04:02:30;56500.03;;;-140.56;100.00
10482;BME280;5288;42.334;23.876;2024-01-15T04:04:57;56476.31;;;-140.56;100.00
10482;BME280;5288;42.334;23.876;2024-01-15T04:07:25;56519.81;;;-140.56;100.00
10482;BME280;5288;42.334;23.876;2024-01-15T04:09:52;56494.09;;;-140.56;100.00
10482;BME280;5288;42.334;23.876;2024-01-15T04:12:19;56519.81;;;-140.56;100.00
10482;BME280;5288;42.334;23.876;2024-01-15T04:14:46;56533.63;;;-140.56;100.00
10482;BME280;5288;42.334;23.876;2024-01-15T04:17:13;56474.34;;;-140.56;100.00
10482;BME280;5288;42.334;23.876;2024-01-15T04:19:40;56531.66;;;-140.56;100.00
10482;BME280;5288;42.334;23.876;2024-01-15T04:22:09;56517.81;;;-140.56;100.00
10482;BME280;5288;42.334;23.876;2024-01-15T04:24:38;56537.59;;;-140.56;100.00
10482;BME280;5288;42.334;23.876;2024-01-15T04:27:05;56500.03;;;-140.56;100.00
10482;BME280;5288;42.334;23.876;2024-01-15T04:29:32;56517.81;;;-140.56;100.00
10482;BME280;5288;42.334;23.876;2024-01-15T04:31:59;56535.59;;;-140.56;100.00
10482;BME280;5288;42.334;23.876;2024-01-15T04:34:26;56500.03;;;-140.56;100.00
10482;BME280;5288;42.334;23.876;2024-01-15T04:36:53;56504.00;;;-140.56;100.00
10482;BME280;5288;42.334;23.876;2024-01-15T04:39:20;56521.78;;;-140.56;100.00
10482;BME280;5288;42.334;23.876;2024-01-15T04:41:49;56502.00;;;-140.56;100.00
10482;BME280;5288;42.334;23.876;2024-01-15T04:44:16;56509.91;;;-140.56;100.00
10482;BME280;5288;42.334;23.876;2024-01-15T04:46:43;56504.00;;;-140.56;100.00
10482;BME280;5288;42.334;23.876;2024-01-15T04:49:10;56500.03;;;-140.56;100.00
10482;BME280;5288;42.334;23.876;2024-01-15T04:51:37;56517.81;;;-140.56;100.00
10482;BME280;5288;42.334;23.876;2024-01-15T04:54:04;56502.00;;;-140.56;100.00
10482;BME280;5288;42.334;23.876;2024-01-15T04:56:31;56517.81;;;-140.56;100.00
10482;BME280;5288;42.334;23.876;2024-01-15T04:59:00;56517.81;;;-140.56;100.00
10482;BME280;5288;42.334;23.876;2024-01-15T05:01:31;56519.81;;;-140.56;100.00
10482;BME280;5288;42.334;23.876;2024-01-15T05:03:58;56507.94;;;-140.56;100.00
10482;BME280;5288;42.334;23.876;2024-01-15T05:06:25;56529.69;;;-140.56;100.00
10482;BME280;5288;42.334;23.876;2024-01-15T05:08:52;56496.09;;;-140.56;100.00
10482;BME280;5288;42.334;23.876;2024-01-15T05:11:19;56509.91;;;-140.56;100.00
10482;BME280;5288;42.334;23.876;2024-01-15T05:13:46;56517.81;;;-140.56;100.00
10482;BME280;5288;42.334;23.876;2024-01-15T05:16:14;56496.09;;;-140.56;100.00
10482;BME280;5288;42.334;23.876;2024-01-15T05:18:41;56527.72;;;-140.56;100.00
10482;BME280;5288;42.334;23.876;2024-01-15T05:21:08;56486.19;;;-140.56;100.00
10482;BME280;5288;42.334;23.876;2024-01-15T05:23:35;56515.84;;;-140.56;100.00
10482;BME280;5288;42.334;23.876;2024-01-15T05:26:03;56519.81;;;-140.56;100.00
10482;BME280;5288;42.334;23.876;2024-01-15T05:28:30;56509.91;;;-140.56;100.00
10482;BME280;5288;42.334;23.876;2024-01-15T05:30:57;56480.28;;;-140.56;100.00
10482;BME280;5288;42.334;23.876;2024-01-15T05:33:25;56513.88;;;-140.56;100.00
10482;BME280;5288;42.334;23.876;2024-01-15T05:35:52;56492.13;;;-140.56;100.00
10482;BME280;5288;42.334;23.876;2024-01-15T05:38:20;56533.63;;;-140.56;100.00
10482;BME280;5288;42.334;23.876;2024-01-15T05:40:47;56492.13;;;-140.56;100.00
10482;BME280;5288;42.334;23.876;2024-01-15T05:43:14;56509.91;;;-140.56;100.00
10482;BME280;5288;42.334;23.876;2024-01-15T05:45:43;56488.19;;;-140.56;100.00
10482;BME280;5288;42.334;23.876;2024-01-15T05:48:10;56521.78;;;-140.56;100.00
10482;BME280;5288;42.334;23.876;2024-01-15T05:50:39;56539.56;;;-140.56;100.00
10482;BME280;5288;42.334;23.876;2024-01-15T05:53:05;56515.84;;;-140.56;100.00
10482;BME280;5288;42.334;23.876;2024-01-15T05:55:32;56482.25;;;-140.56;100.00
10482;BME280;5288;42.334;23.876;2024-01-15T05:57:59;56507.94;;;-140.56;100.00
10482;BME280;5288;42.334;23.876;2024-01-15T06:00:26;56502.00;;;-140.56;100.00
10482;BME280;5288;42.334;23.876;2024-01-15T06:02:53;56490.16;;;-140.56;100.00
10482;BME280;5288;42.334;23.876;2024-01-15T06:05:20;56507.94;;;-140.56;100.00
10482;BME280;5288;42.334;23.876;2024-01-15T06:07:48;56525.72;;;-140.56;100.00
10482;BME280;5288;42.334;23.876;2024-01-15T06:10:15;56502.00;;;-140.56;100.00
10482;BME280;5288;42.334;23.876;2024-01-15T06:12:43;56502.00;;;-140.56;100.00
10482;BME280;5288;42.334;23.876;2024-01-15T06:15:10;56507.94;;;-140.56;100.00
10482;BME280;5288;42.334;23.876;2024-01-15T06:17:38;56529.69;;;-140.56;100.00
10482;BME280;5288;42.334;23.876;2024-01-15T06:20:06;56509.91;;;-140.56;100.00
10482;BME280;5288;42.334;23.876;2024-01-15T06:22:34;56492.13;;;-140.56;100.00
10482;BME280;5288;42.334;23.876;2024-01-15T06:25:04;56492.13;;;-140.56;100.00
10482;BME280;5288;42.334;23.876;2024-01-15T06:27:31;56494.09;;;-140.56;100.00
10482;BME280;5288;42.334;23.876;2024-01-15T06:29:58;56515.84;;;-140.56;100.00
10482;BME280;5288;42.334;23.876;2024-01-15T06:32:25;56504.00;;;-140.56;100.00
10482;BME280;5288;42.334;23.876;2024-01-15T06:34:52;56502.00;;;-140.56;100.00
10482;BME280;5288;42.334;23.876;2024-01-15T06:37:19;56500.03;;;-140.56;100.00
10482;BME280;5288;42.334;23.876;2024-01-15T06:39:45;56519.81;;;-140.56;100.00
10482;BME280;5288;42.334;23.876;2024-01-15T06:42:14;56505.97;;;-140.56;100.00
10482;BME280;5288;42.334;23.876;2024-01-15T06:44:41;56531.66;;;-140.56;100.00
10482;BME280;5288;42.334;23.876;2024-01-15T06:47:08;56498.06;;;-140.56;100.00
10482;BME280;5288;42.334;23.876;2024-01-15T06:49:35;56523.75;;;-140.56;100.00
10482;BME280;5288;42.334;23.876;2024-01-15T06:52:02;56507.94;;;-140.56;100.00
10482;BME280;5288;42.334;23.876;2024-01-15T06:54:29;56492.13;;;-140.56;100.00
10482;BME280;5288;42.334;23.876;2024-01-15T06:56:56;56490.16;;;-140.56;100.00
10482;BME280;5288;42.334;23.876;2024-01-15T06:59:24;56533.63;;;-140.56;100.00
10482;BME280;5288;42.334;23.876;2024-01-15T07:01:51;56482.25;;;-140.56;100.00
10482;BME280;5288;42.334;23.876;2024-01-15T07:04:18;56482.25;;;-140.56;100.00
10482;BME280;5288;42.334;23.876;2024-01-15T07:06:45;56486.19;;;-140.56;100.00
10482;BME280;5288;42.334;23.876;2024-01-15T07:09:13;56482.25;;;-140.56;100.00
10482;BME280;5288;42.334;23.876;2024-01-15T07:11:44;56513.88;;;-140.56;100.00
10482;BME280;5288;42.334;23.876;2024-01-15T07:14:12;56502.00;;;-140.56;100.00
10482;BME280;5288;42.334;23.876;2024-01-15T07:16:41;56484.22;;;-140.56;100.00
10482;BME280;5288;42.334;23.876;2024-01-15T07:19:07;56505.97;;;-140.56;100.00
10482;BME280;5288;42.334;23.876;2024-01-15T07:21:34;56531.66;;;-140.56;100.00
10482;BME280;5288;42.334;23.876;2024-01-15T07:24:01;56490.16;;;-140.56;100.00
10482;BME280;5288;42.334;23.876;2024-01-15T07:26:30;56492.13;;;-140.56;100.00
10482;BME280;5288;42.334;23.876;2024-01-15T07:28:57;56466.44;;;-140.56;100.00
10482;BME280;5288;42.334;23.876;2024-01-15T07:31:24;56511.91;;;-140.56;100.00
10482;BME280;5288;42.334;23.876;2024-01-15T07:33:52;56494.09;;;-140.56;100.00
10482;BME280;5288;42.334;23.876;2024-01-15T07:36:19;56482.25;;;-140.56;100.00
10482;BME280;5288;42.334;23.876;2024-01-15T07:38:46;56523.75;;;-140.56;100.00
10482;BME280;5288;42.334;23.876;2024-01-15T07:41:13;56504.00;;;-140.56;100.00
10482;BME280;5288;42.334;23.876;2024-01-15T07:43:40;56505.97;;;-140.56;100.00
10482;BME280;5288;42.334;23.876;2024-01-15T07:46:07;56502.00;;;-140.56;100.00
10482;BME280;5288;42.334;23.876;2024-01-15T07:48:34;56505.97;;;-140.56;100.00
10482;BME280;5288;42.334;23.876;2024-01-15T07:51:03;56500.03;;;-140.56;100.00
10482;BME280;5288;42.334;23.876;2024-01-15T07:53:30;56484.22;;;-140.56;100.00
10482;BME280;5288;42.334;23.876;2024-01-15T07:55:57;56478.28;;;-140.56;100.00
10482;BME280;5288;42.334;23.876;2024-01-15T07:58:24;56474.34;;;-140.56;100.00
10482;BME280;5288;42.334;23.876;2024-01-15T08:00:51;56515.84;;;-140.56;100.00
10482;BME280;5288;42.334;23.876;2024-01-15T08:03:18;56505.97;;;-140.56;100.00
10482;BME280;5288;42.334;23.876;2024-01-15T08:05:45;56460.50;;;-140.56;100.00
10482;BME280;5288;42.334;23.876;2024-01-15T08:08:14;56505.97;;;-140.56;100.00
10482;BME280;5288;42.334;23.876;2024-01-15T08:10:40;56488.19;;;-140.56;100.00
10482;BME280;5288;42.334;23.876;2024-01-15T08:13:07;56513.88;;;-140.56;100.00
10482;BME280;5288;42.334;23.876;2024-01-15T08:15:35;56515.84;;;-140.56;100.00
10482;BME280;5288;42.334;23.876;2024-01-15T08:18:02;56472.38;;;-140.56;100.00
10482;BME280;5288;42.334;23.876;2024-01-15T08:20:29;56476.31;;;-140.56;100.00
10482;BME280;5288;42.334;23.876;2024-01-15T08:22:56;56507.94;;;-140.56;100.00
10482;BME280;5288;42.334;23.876;2024-01-15T08:25:25;56505.97;;;-140.56;100.00
10482;BME280;5288;42.334;23.876;2024-01-15T08:27:52;56472.38;;;-140.56;100.00
10482;BME280;5288;42.334;23.876;2024-01-15T08:30:19;56505.97;;;-140.56;100.00
10482;BME280;5288;42.334;23.876;2024-01-15T08:32:50;56535.59;;;-140.56;100.00
10482;BME280;5288;42.334;23.876;2024-01-15T08:35:17;56462.47;;;-140.56;100.00
10482;BME280;5288;42.334;23.876;2024-01-15T08:37:48;56478.28;;;-140.56;100.00
10482;BME280;5288;42.334;23.876;2024-01-15T08:40:16;56482.25;;;-140.56;100.00
10482;BME280;5288;42.334;23.876;2024-01-15T08:42:44;56484.22;;;-140.56;99.58
10482;BME280;5288;42.334;23.876;2024-01-15T08:45:12;56444.69;;;-140.56;100.00
10482;BME280;5288;42.334;23.876;2024-01-15T08:47:39;56492.13;;;-140.56;99.80
10482;BME280;5288;42.334;23.876;2024-01-15T08:50:07;56490.16;;;-140.56;99.63
10482;BME280;5288;42.334;23.876;2024-01-15T08:52:36;56460.50;;;-140.56;99.99
10482;BME280;5288;42.334;23.876;2024-01-15T08:55:03;56458.53;;;-140.56;100.00
10482;BME280;5288;42.334;23.876;2024-01-15T08:57:32;56494.09;;;-140.56;100.00
10482;BME280;5288;42.334;23.876;2024-01-15T09:00:01;56496.09;;;-140.56;98.83
10482;BME280;5288;42.334;23.876;2024-01-15T09:02:29;56470.38;;;-140.56;97.26
10482;BME280;5288;42.334;23.876;2024-01-15T09:04:56;56496.09;;;-140.56;96.81
10482;BME280;5288;42.334;23.876;2024-01-15T09:07:23;56492.13;;;-140.56;95.99
10482;BME280;5288;42.334;23.876;2024-01-15T09:09:51;56476.31;;;-140.56;94.66
10482;BME280;5288;42.334;23.876;2024-01-15T09:12:19;56446.69;;;-140.56;92.89
10482;BME280;5288;42.334;23.876;2024-01-15T09:14:47;56474.34;;;-140.56;89.24
10482;BME280;5288;42.334;23.876;2024-01-15T09:17:17;56470.38;;;-140.56;89.07
10482;BME280;5288;42.334;23.876;2024-01-15T09:19:44;56466.44;;;-140.56;88.75
10482;BME280;5288;42.334;23.876;2024-01-15T09:22:12;56452.59;;;-140.56;87.45
10482;BME280;5288;42.334;23.876;2024-01-15T09:24:40;56460.50;;;-140.56;85.24
10482;BME280;5288;42.334;23.876;2024-01-15T09:27:07;56458.53;;;-140.56;81.64
10482;BME280;5288;42.334;23.876;2024-01-15T09:29:34;56464.47;;;-140.56;81.49
10482;BME280;5288;42.334;23.876;2024-01-15T09:32:03;56444.69;;;-140.56;80.03
10482;BME280;5288;42.334;23.876;2024-01-15T09:34:31;56480.28;;;-140.56;79.58
10482;BME280;5288;42.334;23.876;2024-01-15T09:36:58;56462.47;;;-140.56;79.78
10482;BME280;5288;42.334;23.876;2024-01-15T09:39:26;56474.34;;;-140.56;80.12
10482;BME280;5288;42.334;23.876;2024-01-15T09:41:53;56482.25;;;-140.56;77.43
10482;BME280;5288;42.334;23.876;2024-01-15T09:44:21;56460.50;;;-140.56;78.93
10482;BME280;5288;42.334;23.876;2024-01-15T09:46:48;56480.28;;;-140.56;79.74
10482;BME280;5288;42.334;23.876;2024-01-15T09:49:16;56448.66;;;-140.56;81.22
10482;BME280;5288;42.334;23.876;2024-01-15T09:51:44;56482.25;;;-140.56;79.95
10482;BME280;5288;42.334;23.876;2024-01-15T09:54:11;56468.41;;;-140.56;77.06
10482;BME280;5288;42.334;23.876;2024-01-15T09:56:42;56490.16;;;-140.56;73.79
10482;BME280;5288;42.334;23.876;2024-01-15T09:59:13;56460.50;;;-140.56;72.45
10482;BME280;5288;42.334;23.876;2024-01-15T10:01:41;56482.25;;;-140.56;71.31
10482;BME280;5288;42.334;23.876;2024-01-15T10:04:10;56480.28;;;-140.56;69.88
10482;BME280;5288;42.334;23.876;2024-01-15T10:06:38;56470.38;;;-140.56;69.67
10482;BME280;5288;42.334;23.876;2024-01-15T10:09:07;56450.63;;;-140.56;68.68
10482;BME280;5288;42.334;23.876;2024-01-15T10:11:34;56446.69;;;-140.56;68.04
10482;BME280;5288;42.334;23.876;2024-01-15T10:14:03;56448.66;;;-140.56;67.84
10482;BME280;5288;42.334;23.876;2024-01-15T10:16:31;56488.19;;;-140.56;68.21
10482;BME280;5288;42.334;23.876;2024-01-15T10:18:58;56488.19;;;-140.56;68.58
10482;BME280;5288;42.334;23.876;2024-01-15T10:21:25;56440.75;;;-140.56;66.11
10482;BME280;5288;42.334;23.876;2024-01-15T10:23:52;56415.06;;;-140.56;63.73
10482;BME280;5288;42.334;23.876;2024-01-15T10:26:26;56446.69;;;-140.56;61.21
10482;BME280;5288;42.334;23.876;2024-01-15T10:28:53;56434.81;;;-140.56;60.71
10482;BME280;5288;42.334;23.876;2024-01-15T10:31:20;56438.78;;;-140.56;58.26
10482;BME280;5288;42.334;23.876;2024-01-15T10:33:47;56405.16;;;-140.56;54.35
10482;BME280;5288;42.334;23.876;2024-01-15T10:36:15;56409.13;;;-140.56;51.07
10482;BME280;5288;42.334;23.876;2024-01-15T10:38:43;56436.78;;;-140.56;50.84
10482;BME280;5288;42.334;23.876;2024-01-15T10:41:10;56419.00;;;-140.56;47.30
10482;BME280;5288;42.334;23.876;2024-01-15T10:43:39;56411.09;;;-140.56;48.24
10482;BME280;5288;42.334;23.876;2024-01-15T10:46:07;56424.94;;;-140.56;46.57
10482;BME280;5288;42.334;23.876;2024-01-15T10:48:34;56403.19;;;-140.56;47.35
10482;BME280;5288;42.334;23.876;2024-01-15T10:51:01;56444.69;;;-140.56;47.87
10482;BME280;5288;42.334;23.876;2024-01-15T10:53:37;56399.25;;;-140.56;49.23
10482;BME280;5288;42.334;23.876;2024-01-15T10:56:06;56434.81;;;-140.56;49.43
10482;BME280;5288;42.334;23.876;2024-01-15T10:58:34;56409.13;;;-140.56;48.86
10482;BME280;5288;42.334;23.876;2024-01-15T11:01:04;56403.19;;;-140.56;47.19
10482;BME280;5288;42.334;23.876;2024-01-15T11:03:31;56409.13;;;-140.56;47.33
10482;BME280;5288;42.334;23.876;2024-01-15T11:05:59;56405.16;;;-140.56;45.74
10482;BME280;5288;42.334;23.876;2024-01-15T11:08:25;56397.25;;;-140.56;46.14
10482;BME280;5288;42.334;23.876;2024-01-15T11:10:53;56393.31;;;-140.56;45.58
10482;BME280;5288;42.334;23.876;2024-01-15T11:13:22;56365.66;;;-140.56;44.91
10482;BME280;5288;42.334;23.876;2024-01-15T11:15:58;56393.31;;;-140.56;44.21
10482;BME280;5288;42.334;23.876;2024-01-15T11:18:29;56413.06;;;-140.56;44.18
10482;BME280;5288;42.334;23.876;2024-01-15T11:21:22;56403.19;;;-140.56;43.93
10482;BME280;5288;42.334;23.876;2024-01-15T11:23:52;56389.34;;;-140.56;43.56
10482;BME280;5288;42.334;23.876;2024-01-15T11:26:33;56383.44;;;-140.56;42.48
10482;BME280;5288;42.334;23.876;2024-01-15T11:29:03;56361.69;;;-140.56;42.73
10482;BME280;5288;42.334;23.876;2024-01-15T11:31:58;56365.66;;;-140.56;42.16
10482;BME280;5288;42.334;23.876;2024-01-15T11:34:56;56359.72;;;-140.56;41.61
10482;BME280;5288;42.334;23.876;2024-01-15T11:37:26;56405.16;;;-140.56;41.25
10482;BME280;5288;42.334;23.876;2024-01-15T11:39:54;56419.00;;;-140.56;40.81
10482;BME280;5288;42.334;23.876;2024-01-15T11:42:21;56345.88;;;-140.56;41.01
10482;BME280;5288;42.334;23.876;2024-01-15T11:44:49;56337.97;;;-140.56;41.04
10482;BME280;5288;42.334;23.876;2024-01-15T11:47:29;56345.88;;;-140.56;40.71
10482;BME280;5288;42.334;23.876;2024-01-15T11:50:02;56377.50;;;-140.56;40.58
10482;BME280;5288;42.334;23.876;2024-01-15T11:52:35;56334.03;;;-140.56;40.22
10482;BME280;5288;42.334;23.876;2024-01-15T11:55:11;56395.28;;;-140.56;40.16
10482;BME280;5288;42.334;23.876;2024-01-15T11:57:45;56320.19;;;-140.56;40.50
10482;BME280;5288;42.334;23.876;2024-01-15T12:00:13;56363.66;;;-140.56;40.06
10482;BME280;5288;42.334;23.876;2024-01-15T12:02:41;56322.16;;;-140.56;40.37
10482;BME280;5288;42.334;23.876;2024-01-15T12:05:11;56339.94;;;-140.56;39.90
10482;BME280;5288;42.334;23.876;2024-01-15T12:07:39;56353.78;;;-140.56;39.63
10482;BME280;5288;42.334;23.876;2024-01-15T12:10:09;56365.66;;;-140.56;39.29
10482;BME280;5288;42.334;23.876;2024-01-15T12:12:50;56357.75;;;-140.56;39.95
10482;BME280;5288;42.334;23.876;2024-01-15T12:15:21;56324.13;;;-140.56;39.13
10482;BME280;5288;42.334;23.876;2024-01-15T12:17:48;56367.63;;;-140.56;38.56
10482;BME280;5288;42.334;23.876;2024-01-15T12:20:17;56302.41;;;-140.56;37.64
10482;BME280;5288;42.334;23.876;2024-01-15T12:22:44;56349.84;;;-140.56;37.45
10482;BME280;5288;42.334;23.876;2024-01-15T12:25:11;56300.44;;;-140.56;36.34
10482;BME280;5288;42.334;23.876;2024-01-15T12:27:38;56308.34;;;-140.56;36.42
10482;BME280;5288;42.334;23.876;2024-01-15T12:30:06;56334.03;;;-140.56;36.36
10482;BME280;5288;42.334;23.876;2024-01-15T12:32:34;56359.72;;;-140.56;36.29
10482;BME280;5288;42.334;23.876;2024-01-15T12:35:02;56326.13;;;-140.56;37.14
10482;BME280;5288;42.334;23.876;2024-01-15T12:37:31;56345.88;;;-140.56;37.89